createdAt,value
2022-12-09T00:00:54.059Z,28.67
2022-12-09T00:01:33.787Z,29.16
2022-12-09T00:02:14.232Z,29.79
2022-12-09T00:02:54.897Z,32.05
2022-12-09T00:03:42.940Z,31.15
2022-12-09T00:04:36.971Z,28.96
2022-12-09T00:05:30.928Z,29.14
2022-12-09T00:06:34.764Z,29.71
2022-12-09T00:07:29.027Z,29.06
2022-12-09T00:08:22.926Z,29.63
2022-12-09T00:09:04.890Z,29.64
2022-12-09T00:09:45.020Z,29.95
2022-12-09T00:10:25.893Z,28.31
2022-12-09T00:11:06.865Z,28.60
2022-12-09T00:11:47.783Z,30.75
2022-12-09T00:12:28.002Z,30.90
2022-12-09T00:13:07.800Z,30.33
2022-12-09T00:13:48.040Z,33.21
2022-12-09T00:14:29.029Z,34.71
2022-12-09T00:15:09.037Z,33.67
2022-12-09T00:15:50.092Z,32.60
2022-12-09T00:16:31.972Z,35.69
2022-12-09T00:17:12.928Z,35.83
2022-12-09T00:17:52.833Z,35.86
2022-12-09T00:18:33.840Z,36.81
2022-12-09T00:19:13.929Z,36.64
2022-12-09T00:19:54.827Z,33.94
2022-12-09T00:20:34.861Z,32.88
2022-12-09T00:21:39.000Z,31.46
2022-12-09T00:22:19.022Z,32.04
2022-12-09T00:22:59.774Z,33.14
2022-12-09T00:23:39.833Z,31.65
2022-12-09T00:24:21.857Z,32.04
2022-12-09T00:25:08.882Z,31.44
2022-12-09T00:26:02.806Z,30.45
2022-12-09T00:26:56.767Z,30.95
2022-12-09T00:27:50.940Z,29.65
2022-12-09T00:28:44.976Z,29.73
2022-12-09T00:29:38.777Z,29.40
2022-12-09T00:30:26.787Z,29.63
2022-12-09T00:31:01.032Z,29.81
2022-12-09T00:31:48.170Z,29.27
2022-12-09T00:32:23.082Z,28.25
2022-12-09T00:33:09.753Z,28.98
2022-12-09T00:33:44.531Z,28.74
2022-12-09T00:34:31.996Z,28.30
2022-12-09T00:35:12.813Z,28.31
2022-12-09T00:35:52.761Z,27.91
2022-12-09T00:36:34.828Z,28.35
2022-12-09T00:37:15.760Z,26.98
2022-12-09T00:37:57.108Z,28.55
2022-12-09T00:38:37.889Z,28.52
2022-12-09T00:39:17.914Z,28.15
2022-12-09T00:39:57.787Z,28.25
2022-12-09T00:40:38.935Z,29.61
2022-12-09T00:41:20.782Z,31.66
2022-12-09T00:42:02.068Z,33.78
2022-12-09T00:42:42.716Z,34.97
2022-12-09T00:43:22.824Z,35.58
2022-12-09T00:44:04.759Z,38.49
2022-12-09T00:44:44.783Z,39.99
2022-12-09T00:45:24.754Z,41.35
2022-12-09T00:46:05.318Z,42.51
2022-12-09T00:46:46.028Z,40.09
2022-12-09T00:47:25.984Z,37.19
2022-12-09T00:48:06.840Z,34.92
2022-12-09T00:48:48.791Z,35.04
2022-12-09T00:49:28.730Z,36.85
2022-12-09T00:50:11.232Z,36.29
2022-12-09T00:50:52.864Z,35.01
2022-12-09T00:51:33.020Z,36.17
2022-12-09T00:52:13.764Z,34.34
2022-12-09T00:52:53.968Z,36.80
2022-12-09T00:53:34.727Z,41.50
2022-12-09T00:54:16.094Z,43.94
2022-12-09T00:54:56.837Z,39.20
2022-12-09T00:55:37.256Z,35.65
2022-12-09T00:56:18.777Z,33.10
2022-12-09T00:56:59.845Z,33.39
2022-12-09T00:57:39.941Z,32.45
2022-12-09T00:58:20.933Z,31.61
2022-12-09T00:59:00.791Z,32.42
2022-12-09T00:59:40.905Z,31.88
2022-12-09T01:00:21.934Z,32.90
2022-12-09T01:01:01.862Z,33.63
2022-12-09T01:01:42.785Z,33.08
2022-12-09T01:02:22.854Z,32.89
2022-12-09T01:03:02.972Z,32.29
2022-12-09T01:03:43.021Z,31.90
2022-12-09T01:04:24.022Z,33.06
2022-12-09T01:05:04.035Z,32.99
2022-12-09T01:05:44.902Z,32.66
2022-12-09T01:06:30.008Z,30.67
2022-12-09T01:07:10.892Z,29.74
2022-12-09T01:07:51.066Z,27.55
2022-12-09T01:08:32.039Z,28.29
2022-12-09T01:09:12.343Z,28.94
2022-12-09T01:09:52.731Z,29.79
2022-12-09T01:10:33.217Z,30.33
2022-12-09T01:11:19.848Z,29.04
2022-12-09T01:12:00.345Z,28.41
2022-12-09T01:12:40.754Z,28.77
2022-12-09T01:13:22.862Z,30.05
2022-12-09T01:14:07.883Z,28.05
2022-12-09T01:14:48.102Z,27.64
2022-12-09T01:15:28.858Z,28.52
2022-12-09T01:16:10.461Z,28.08
2022-12-09T01:16:50.874Z,26.58
2022-12-09T01:17:31.806Z,26.51
2022-12-09T01:18:13.765Z,27.45
2022-12-09T01:18:55.306Z,28.41
2022-12-09T01:19:35.993Z,29.60
2022-12-09T01:20:17.264Z,28.14
2022-12-09T01:21:05.977Z,28.05
2022-12-09T01:21:45.808Z,29.02
2022-12-09T01:22:25.860Z,27.36
2022-12-09T01:23:07.055Z,27.36
2022-12-09T01:23:47.997Z,28.75
2022-12-09T01:24:28.756Z,28.75
2022-12-09T01:25:09.875Z,27.42
2022-12-09T01:25:51.071Z,28.24
2022-12-09T01:26:32.803Z,27.89
2022-12-09T01:27:13.163Z,28.24
2022-12-09T01:27:53.756Z,26.20
2022-12-09T01:28:34.133Z,26.10
2022-12-09T01:29:16.033Z,26.46
2022-12-09T01:29:55.744Z,27.50
2022-12-09T01:30:36.718Z,28.14
2022-12-09T01:31:21.926Z,29.46
2022-12-09T01:32:02.829Z,29.36
2022-12-09T01:32:43.628Z,27.65
2022-12-09T01:33:23.770Z,27.80
2022-12-09T01:34:03.945Z,27.06
2022-12-09T01:34:43.662Z,27.24
2022-12-09T01:35:24.921Z,27.71
2022-12-09T01:36:04.888Z,27.85
2022-12-09T01:36:44.782Z,27.38
2022-12-09T01:37:25.987Z,28.51
2022-12-09T01:38:05.760Z,28.41
2022-12-09T01:38:46.733Z,27.44
2022-12-09T01:39:26.925Z,26.81
2022-12-09T01:40:08.849Z,28.17
2022-12-09T01:40:53.756Z,27.92
2022-12-09T01:41:34.685Z,27.11
2022-12-09T01:42:26.884Z,26.98
2022-12-09T01:43:08.006Z,27.50
2022-12-09T01:43:48.722Z,25.50
2022-12-09T01:44:33.661Z,25.17
2022-12-09T01:45:30.776Z,26.90
2022-12-09T01:46:10.779Z,27.10
2022-12-09T01:46:58.977Z,26.38
2022-12-09T01:47:33.534Z,26.86
2022-12-09T01:48:29.842Z,27.52
2022-12-09T01:49:04.409Z,27.67
2022-12-09T01:49:54.925Z,27.14
2022-12-09T01:50:29.397Z,25.50
2022-12-09T01:51:30.188Z,27.81
2022-12-09T01:52:28.705Z,27.41
2022-12-09T01:53:09.903Z,26.54
2022-12-09T01:53:52.653Z,28.23
2022-12-09T01:54:34.019Z,27.09
2022-12-09T01:55:15.691Z,27.35
2022-12-09T01:55:56.980Z,27.36
2022-12-09T01:56:40.888Z,27.45
2022-12-09T01:57:21.774Z,28.14
2022-12-09T01:58:01.681Z,28.15
2022-12-09T01:58:41.712Z,27.74
2022-12-09T01:59:22.898Z,25.66
2022-12-09T02:00:04.105Z,26.79
2022-12-09T02:00:44.658Z,27.17
2022-12-09T02:01:26.061Z,26.81
2022-12-09T02:02:08.767Z,27.58
2022-12-09T02:02:52.403Z,28.30
2022-12-09T02:03:33.075Z,27.44
2022-12-09T02:04:13.840Z,27.98
2022-12-09T02:04:55.828Z,28.83
2022-12-09T02:05:37.893Z,27.59
2022-12-09T02:06:18.665Z,27.44
2022-12-09T02:07:00.097Z,28.46
2022-12-09T02:07:41.712Z,27.34
2022-12-09T02:08:25.948Z,28.00
2022-12-09T02:09:08.056Z,26.74
2022-12-09T02:09:53.218Z,26.49
2022-12-09T02:10:34.670Z,26.96
2022-12-09T02:11:38.893Z,27.34
2022-12-09T02:12:38.856Z,27.63
2022-12-09T02:13:27.994Z,28.54
2022-12-09T02:14:33.736Z,27.09
2022-12-09T02:15:27.823Z,25.65
2022-12-09T02:16:11.987Z,25.42
2022-12-09T02:17:36.802Z,26.42
2022-12-09T02:18:33.835Z,26.16
2022-12-09T02:19:56.651Z,25.91
2022-12-09T02:20:44.704Z,25.30
2022-12-09T02:21:48.908Z,25.52
2022-12-09T02:22:30.427Z,26.91
2022-12-09T02:23:43.672Z,26.23
2022-12-09T02:24:46.414Z,25.51
2022-12-09T02:25:52.779Z,26.15
2022-12-09T02:26:59.839Z,26.49
2022-12-09T02:28:04.621Z,25.24
2022-12-09T02:29:16.105Z,25.59
2022-12-09T02:30:23.880Z,26.30
2022-12-09T02:31:58.870Z,25.30
2022-12-09T02:33:23.243Z,25.29
2022-12-09T02:34:33.651Z,27.23
2022-12-09T02:35:19.060Z,29.45
2022-12-09T02:36:28.648Z,30.69
2022-12-09T02:37:24.740Z,28.49
2022-12-09T02:38:27.699Z,27.29
2022-12-09T02:39:16.902Z,27.11
2022-12-09T02:40:07.323Z,25.71
2022-12-09T02:41:02.669Z,26.50
2022-12-09T02:41:38.076Z,27.23
2022-12-09T02:42:28.712Z,25.99
2022-12-09T02:43:02.840Z,26.39
2022-12-09T02:43:56.090Z,26.34
2022-12-09T02:44:31.918Z,25.10
2022-12-09T02:45:19.644Z,25.05
2022-12-09T02:45:54.794Z,25.84
2022-12-09T02:46:42.748Z,25.60
2022-12-09T02:47:20.017Z,25.91
2022-12-09T02:48:01.939Z,25.17
2022-12-09T02:48:54.121Z,24.83
2022-12-09T02:49:36.801Z,25.90
2022-12-09T02:50:19.708Z,27.27
2022-12-09T02:51:00.627Z,25.58
2022-12-09T02:51:42.804Z,25.31
2022-12-09T02:52:25.851Z,26.19
2022-12-09T02:53:16.777Z,27.42
2022-12-09T02:54:21.605Z,27.11
2022-12-09T02:55:21.724Z,26.23
2022-12-09T02:56:17.633Z,26.14
2022-12-09T02:57:16.607Z,25.56
2022-12-09T02:58:13.613Z,25.64
2022-12-09T02:58:55.862Z,25.81
2022-12-09T02:59:36.708Z,24.56
2022-12-09T03:00:20.696Z,24.77
2022-12-09T03:01:04.505Z,26.51
2022-12-09T03:02:09.872Z,26.89
2022-12-09T03:02:56.203Z,26.85
2022-12-09T03:03:40.771Z,25.61
2022-12-09T03:04:27.945Z,25.59
2022-12-09T03:05:34.898Z,26.34
2022-12-09T03:06:23.580Z,25.74
2022-12-09T03:07:27.947Z,24.38
2022-12-09T03:08:39.746Z,25.16
2022-12-09T03:09:18.804Z,24.90
2022-12-09T03:10:08.837Z,26.91
2022-12-09T03:11:11.619Z,25.76
2022-12-09T03:11:52.596Z,26.74
2022-12-09T03:12:35.680Z,27.46
2022-12-09T03:13:46.833Z,26.98
2022-12-09T03:14:46.675Z,27.75
2022-12-09T03:15:31.749Z,27.51
2022-12-09T03:16:35.931Z,27.36
2022-12-09T03:17:20.649Z,27.83
2022-12-09T03:18:01.802Z,26.06
2022-12-09T03:18:44.622Z,25.58
2022-12-09T03:19:52.625Z,26.10
2022-12-09T03:20:35.759Z,24.85
2022-12-09T03:21:17.144Z,25.23
2022-12-09T03:22:03.948Z,26.19
2022-12-09T03:22:48.684Z,25.33
2022-12-09T03:23:32.772Z,25.88
2022-12-09T03:24:16.688Z,25.48
2022-12-09T03:25:23.811Z,25.91
2022-12-09T03:26:05.551Z,24.91
2022-12-09T03:26:40.732Z,26.20
2022-12-09T03:27:34.550Z,26.35
2022-12-09T03:28:14.756Z,24.66
2022-12-09T03:29:02.562Z,25.39
2022-12-09T03:29:38.037Z,25.41
2022-12-09T03:30:25.858Z,24.51
2022-12-09T03:31:00.823Z,24.64
2022-12-09T03:31:42.952Z,24.35
2022-12-09T03:32:27.683Z,25.69
2022-12-09T03:33:09.737Z,26.61
2022-12-09T03:33:54.924Z,25.50
2022-12-09T03:34:42.608Z,26.01
2022-12-09T03:35:28.705Z,24.25
2022-12-09T03:36:11.760Z,25.06
2022-12-09T03:37:01.843Z,27.05
2022-12-09T03:37:56.623Z,26.58
2022-12-09T03:38:38.555Z,25.02
2022-12-09T03:39:32.840Z,24.63
2022-12-09T03:40:14.066Z,26.36
2022-12-09T03:41:08.595Z,26.48
2022-12-09T03:41:48.254Z,26.08
2022-12-09T03:42:35.614Z,26.54
2022-12-09T03:43:18.593Z,26.88
2022-12-09T03:44:01.156Z,27.92
2022-12-09T03:44:53.612Z,25.76
2022-12-09T03:45:27.807Z,26.09
2022-12-09T03:46:01.684Z,25.63
2022-12-09T03:46:42.740Z,27.46
2022-12-09T03:47:17.945Z,26.75
2022-12-09T03:47:59.700Z,26.45
2022-12-09T03:48:39.573Z,27.23
2022-12-09T03:49:19.582Z,26.95
2022-12-09T03:49:59.918Z,26.64
2022-12-09T03:50:56.592Z,25.98
2022-12-09T03:52:03.720Z,28.24
2022-12-09T03:52:48.551Z,30.06
2022-12-09T03:53:44.944Z,30.59
2022-12-09T03:54:40.836Z,29.70
2022-12-09T03:55:36.183Z,27.95
2022-12-09T03:56:34.814Z,29.13
2022-12-09T03:57:14.096Z,31.10
2022-12-09T03:57:56.748Z,32.94
2022-12-09T03:58:39.850Z,32.44
2022-12-09T03:59:25.675Z,32.41
2022-12-09T04:00:02.228Z,29.63
2022-12-09T04:00:52.037Z,28.95
2022-12-09T04:01:27.969Z,27.73
2022-12-09T04:02:15.830Z,27.27
2022-12-09T04:02:50.801Z,28.10
2022-12-09T04:03:37.849Z,27.98
2022-12-09T04:04:12.994Z,26.70
2022-12-09T04:04:53.561Z,27.36
2022-12-09T04:05:27.835Z,27.58
2022-12-09T04:06:02.387Z,26.51
2022-12-09T04:06:43.607Z,26.54
2022-12-09T04:07:17.616Z,28.51
2022-12-09T04:07:51.761Z,29.95
2022-12-09T04:08:33.012Z,30.27
2022-12-09T04:09:07.728Z,29.99
2022-12-09T04:09:42.103Z,28.17
2022-12-09T04:10:23.785Z,27.20
2022-12-09T04:10:57.553Z,27.26
2022-12-09T04:11:32.809Z,27.77
2022-12-09T04:12:13.550Z,30.08
2022-12-09T04:12:47.606Z,29.09
2022-12-09T04:13:21.582Z,29.86
2022-12-09T04:14:01.812Z,32.99
2022-12-09T04:14:35.792Z,36.86
2022-12-09T04:15:10.530Z,35.03
2022-12-09T04:15:50.762Z,33.11
2022-12-09T04:16:24.673Z,30.64
2022-12-09T04:16:58.250Z,28.39
2022-12-09T04:17:38.633Z,29.00
2022-12-09T04:18:12.947Z,27.94
2022-12-09T04:18:47.520Z,26.42
2022-12-09T04:19:28.900Z,25.94
2022-12-09T04:20:02.629Z,26.49
2022-12-09T04:20:36.464Z,27.54
2022-12-09T04:21:19.544Z,29.70
2022-12-09T04:21:53.791Z,33.54
2022-12-09T04:22:27.545Z,34.36
2022-12-09T04:23:08.731Z,38.86
2022-12-09T04:23:43.558Z,42.58
2022-12-09T04:24:17.376Z,39.04
2022-12-09T04:24:57.518Z,32.90
2022-12-09T04:25:31.572Z,30.41
2022-12-09T04:26:06.531Z,27.74
2022-12-09T04:26:46.831Z,27.40
2022-12-09T04:27:20.633Z,28.02
2022-12-09T04:27:55.297Z,27.34
2022-12-09T04:28:36.643Z,27.21
2022-12-09T04:29:10.663Z,28.74
2022-12-09T04:29:45.015Z,28.38
2022-12-09T04:30:24.758Z,29.85
2022-12-09T04:30:58.818Z,30.46
2022-12-09T04:31:32.912Z,29.88
2022-12-09T04:32:13.596Z,32.20
2022-12-09T04:32:47.670Z,31.76
2022-12-09T04:33:21.703Z,29.17
2022-12-09T04:34:06.727Z,29.56
2022-12-09T04:34:42.537Z,29.81
2022-12-09T04:35:16.491Z,29.67
2022-12-09T04:35:56.586Z,28.31
2022-12-09T04:36:30.831Z,28.23
2022-12-09T04:37:05.201Z,28.90
2022-12-09T04:37:46.763Z,27.79
2022-12-09T04:38:20.816Z,27.98
2022-12-09T04:38:54.821Z,28.41
2022-12-09T04:39:34.489Z,27.35
2022-12-09T04:40:09.204Z,30.00
2022-12-09T04:40:43.475Z,29.99
2022-12-09T04:41:23.543Z,29.14
2022-12-09T04:41:57.528Z,30.10
2022-12-09T04:42:32.016Z,30.06
2022-12-09T04:43:12.776Z,29.42
2022-12-09T04:43:48.965Z,30.79
2022-12-09T04:44:23.867Z,30.85
2022-12-09T04:45:03.492Z,29.44
2022-12-09T04:45:37.861Z,30.34
2022-12-09T04:46:16.123Z,30.73
2022-12-09T04:46:57.809Z,30.35
2022-12-09T04:47:31.632Z,32.33
2022-12-09T04:48:05.432Z,33.83
2022-12-09T04:48:45.774Z,32.21
2022-12-09T04:49:19.851Z,31.65
2022-12-09T04:50:00.607Z,32.24
2022-12-09T04:50:40.489Z,33.10
2022-12-09T04:51:17.084Z,35.96
2022-12-09T04:51:51.628Z,35.01
2022-12-09T04:52:31.817Z,35.01
2022-12-09T04:53:05.822Z,36.10
2022-12-09T04:53:40.810Z,36.41
2022-12-09T04:54:21.734Z,41.17
2022-12-09T04:54:56.596Z,53.63
2022-12-09T04:55:30.218Z,59.39
2022-12-09T04:56:25.592Z,51.70
2022-12-09T04:56:59.705Z,44.50
2022-12-09T04:57:33.456Z,48.17
2022-12-09T04:58:14.742Z,48.84
2022-12-09T04:58:49.941Z,51.24
2022-12-09T04:59:30.874Z,50.35
2022-12-09T05:00:12.816Z,49.30
2022-12-09T05:00:53.799Z,47.59
2022-12-09T05:01:34.856Z,45.11
2022-12-09T05:02:15.661Z,43.85
2022-12-09T05:02:55.626Z,44.25
2022-12-09T05:03:36.868Z,43.47
2022-12-09T05:04:18.889Z,42.56
2022-12-09T05:04:59.780Z,43.88
2022-12-09T05:05:40.008Z,45.09
2022-12-09T05:06:21.543Z,43.59
2022-12-09T05:07:01.589Z,45.14
2022-12-09T05:07:42.610Z,44.71
2022-12-09T05:08:31.062Z,43.21
2022-12-09T05:09:18.928Z,43.47
2022-12-09T05:10:14.313Z,43.49
2022-12-09T05:11:08.588Z,44.10
2022-12-09T05:12:02.896Z,43.64
2022-12-09T05:12:56.757Z,39.81
2022-12-09T05:13:50.870Z,39.26
2022-12-09T05:14:45.473Z,38.14
2022-12-09T05:15:32.874Z,39.41
2022-12-09T05:16:17.481Z,40.55
2022-12-09T05:17:04.556Z,38.55
2022-12-09T05:17:38.626Z,38.01
2022-12-09T05:18:25.800Z,37.78
2022-12-09T05:18:59.884Z,38.50
2022-12-09T05:19:47.503Z,36.70
2022-12-09T05:20:21.598Z,35.89
2022-12-09T05:21:03.584Z,36.34
2022-12-09T05:21:46.407Z,36.86
2022-12-09T05:22:26.615Z,37.66
2022-12-09T05:23:09.567Z,34.54
2022-12-09T05:23:51.733Z,33.47
2022-12-09T05:24:47.690Z,33.34
2022-12-09T05:25:42.811Z,33.95
2022-12-09T05:26:26.594Z,34.08
2022-12-09T05:27:20.723Z,33.74
2022-12-09T05:28:14.505Z,34.16
2022-12-09T05:29:08.689Z,34.83
2022-12-09T05:30:02.672Z,33.24
2022-12-09T05:30:57.777Z,33.80
2022-12-09T05:31:44.801Z,34.45
2022-12-09T05:32:18.779Z,33.97
2022-12-09T05:33:05.949Z,31.76
2022-12-09T05:33:40.758Z,32.78
2022-12-09T05:34:27.638Z,33.58
2022-12-09T05:35:02.694Z,34.31
2022-12-09T05:35:53.569Z,33.33
2022-12-09T05:36:31.726Z,32.65
2022-12-09T05:37:12.905Z,33.31
2022-12-09T05:37:53.792Z,33.85
2022-12-09T05:38:34.506Z,33.29
2022-12-09T05:39:15.847Z,31.23
2022-12-09T05:39:55.875Z,33.17
2022-12-09T05:40:36.590Z,32.42
2022-12-09T05:41:17.785Z,31.45
2022-12-09T05:41:58.799Z,31.46
2022-12-09T05:42:41.626Z,32.55
2022-12-09T05:43:23.823Z,33.08
2022-12-09T05:44:04.626Z,31.25
2022-12-09T05:44:45.556Z,30.67
2022-12-09T05:45:25.816Z,31.00
2022-12-09T05:46:08.806Z,30.21
2022-12-09T05:46:50.622Z,31.24
2022-12-09T05:47:30.681Z,30.41
2022-12-09T05:48:11.748Z,28.46
2022-12-09T05:48:52.579Z,29.39
2022-12-09T05:49:32.984Z,31.09
2022-12-09T05:50:15.154Z,30.20
2022-12-09T05:51:12.508Z,29.83
2022-12-09T05:51:54.320Z,29.79
2022-12-09T05:52:35.753Z,31.09
2022-12-09T05:53:23.661Z,31.95
2022-12-09T05:54:19.495Z,30.77
2022-12-09T05:55:13.538Z,29.66
2022-12-09T05:56:07.588Z,30.85
2022-12-09T05:57:03.776Z,32.49
2022-12-09T05:57:58.577Z,33.61
2022-12-09T05:58:45.656Z,31.41
2022-12-09T05:59:19.538Z,30.89
2022-12-09T06:00:07.199Z,31.42
2022-12-09T06:00:41.855Z,32.65
2022-12-09T06:01:29.591Z,32.72
2022-12-09T06:02:09.801Z,33.91
2022-12-09T06:02:57.730Z,35.22
2022-12-09T06:03:31.662Z,36.71
2022-12-09T06:04:12.815Z,37.84
2022-12-09T06:04:55.611Z,36.69
2022-12-09T06:05:36.630Z,37.22
2022-12-09T06:06:20.777Z,37.24
2022-12-09T06:07:02.846Z,37.58
2022-12-09T06:07:44.019Z,36.09
2022-12-09T06:08:24.673Z,37.03
2022-12-09T06:09:11.579Z,38.13
2022-12-09T06:09:53.528Z,37.10
2022-12-09T06:10:34.882Z,36.75
2022-12-09T06:11:25.840Z,37.69
2022-12-09T06:12:06.668Z,36.67
2022-12-09T06:12:47.815Z,36.92
2022-12-09T06:13:28.631Z,38.64
2022-12-09T06:14:09.519Z,36.74
2022-12-09T06:14:49.887Z,33.97
2022-12-09T06:15:33.677Z,36.05
2022-12-09T06:16:15.622Z,35.60
2022-12-09T06:16:57.496Z,35.13
2022-12-09T06:17:38.061Z,35.94
2022-12-09T06:18:18.658Z,36.53
2022-12-09T06:18:58.701Z,38.29
2022-12-09T06:19:39.864Z,38.46
2022-12-09T06:20:20.593Z,38.05
2022-12-09T06:21:00.440Z,36.69
2022-12-09T06:21:41.645Z,36.81
2022-12-09T06:22:21.848Z,37.24
2022-12-09T06:23:03.734Z,37.04
2022-12-09T06:23:47.632Z,36.44
2022-12-09T06:24:27.591Z,36.54
2022-12-09T06:25:07.559Z,36.06
2022-12-09T06:25:50.818Z,35.79
2022-12-09T06:26:35.594Z,36.78
2022-12-09T06:27:15.672Z,36.05
2022-12-09T06:27:56.771Z,35.54
2022-12-09T06:28:37.769Z,36.20
2022-12-09T06:29:17.498Z,37.53
2022-12-09T06:29:58.477Z,38.80
2022-12-09T06:30:38.386Z,39.51
2022-12-09T06:31:18.899Z,42.06
2022-12-09T06:32:00.526Z,45.39
2022-12-09T06:32:41.641Z,44.89
2022-12-09T06:33:52.364Z,43.89
2022-12-09T06:34:21.593Z,45.74
2022-12-09T06:35:02.908Z,46.85
2022-12-09T06:35:43.947Z,44.05
2022-12-09T06:36:25.922Z,41.95
2022-12-09T06:37:13.760Z,41.80
2022-12-09T06:38:07.509Z,42.59
2022-12-09T06:39:09.269Z,42.31
2022-12-09T06:40:03.384Z,41.26
2022-12-09T06:40:58.410Z,41.94
2022-12-09T06:41:56.589Z,44.34
2022-12-09T06:42:37.631Z,47.56
2022-12-09T06:43:20.028Z,44.22
2022-12-09T06:44:04.769Z,45.15
2022-12-09T06:44:45.475Z,47.13
2022-12-09T06:45:27.613Z,50.01
2022-12-09T06:46:08.858Z,51.44
2022-12-09T06:46:48.727Z,52.85
2022-12-09T06:47:29.765Z,50.55
2022-12-09T06:48:11.681Z,49.75
2022-12-09T06:48:53.900Z,50.42
2022-12-09T06:49:35.548Z,50.13
2022-12-09T06:50:17.687Z,53.29
2022-12-09T06:50:58.674Z,52.14
2022-12-09T06:51:41.059Z,50.47
2022-12-09T06:52:22.843Z,52.44
2022-12-09T06:53:04.870Z,52.01
2022-12-09T06:53:46.764Z,53.75
2022-12-09T06:54:27.834Z,52.91
2022-12-09T06:55:08.958Z,53.14
2022-12-09T06:55:49.647Z,55.28
2022-12-09T06:56:31.392Z,53.44
2022-12-09T06:57:13.851Z,52.86
2022-12-09T06:57:55.719Z,52.99
2022-12-09T06:58:36.724Z,53.50
2022-12-09T06:59:17.586Z,54.61
2022-12-09T06:59:58.822Z,55.15
2022-12-09T07:00:39.773Z,54.13
2022-12-09T07:01:26.861Z,54.49
2022-12-09T07:02:08.920Z,55.41
2022-12-09T07:02:49.791Z,54.50
2022-12-09T07:03:30.775Z,54.61
2022-12-09T07:04:12.624Z,52.03
2022-12-09T07:04:53.649Z,52.66
2022-12-09T07:05:34.577Z,53.61
2022-12-09T07:06:32.767Z,57.15
2022-12-09T07:07:15.101Z,58.42
2022-12-09T07:07:59.654Z,58.06
2022-12-09T07:08:41.781Z,56.74
2022-12-09T07:09:28.694Z,55.73
2022-12-09T07:10:13.868Z,56.92
2022-12-09T07:10:51.745Z,56.86
2022-12-09T07:11:44.538Z,60.59
2022-12-09T07:12:18.560Z,64.69
2022-12-09T07:13:05.457Z,61.83
2022-12-09T07:13:39.448Z,61.55
2022-12-09T07:14:27.527Z,60.84
2022-12-09T07:15:01.956Z,57.71
2022-12-09T07:15:43.437Z,57.51
2022-12-09T07:16:23.883Z,57.00
2022-12-09T07:17:04.645Z,56.74
2022-12-09T07:17:45.508Z,58.04
2022-12-09T07:18:25.357Z,57.19
2022-12-09T07:19:06.469Z,57.84
2022-12-09T07:19:47.442Z,62.99
2022-12-09T07:20:28.572Z,65.47
2022-12-09T07:21:22.747Z,75.82
2022-12-09T07:22:03.694Z,85.69
2022-12-09T07:22:44.363Z,89.94
2022-12-09T07:23:24.809Z,95.72
2022-12-09T07:24:09.471Z,94.11
2022-12-09T07:24:51.657Z,92.05
2022-12-09T07:25:33.294Z,89.66
2022-12-09T07:26:15.740Z,83.15
2022-12-09T07:26:59.404Z,75.81
2022-12-09T07:27:43.627Z,63.78
2022-12-09T07:28:24.435Z,58.84
2022-12-09T07:29:20.759Z,60.56
2022-12-09T07:30:16.429Z,70.19
2022-12-09T07:31:10.493Z,73.70
2022-12-09T07:32:06.446Z,82.95
2022-12-09T07:33:00.731Z,85.20
2022-12-09T07:33:55.546Z,85.61
2022-12-09T07:34:51.721Z,88.19
2022-12-09T07:35:46.654Z,84.01
2022-12-09T07:36:44.729Z,88.00
2022-12-09T07:37:31.699Z,91.45
2022-12-09T07:38:05.602Z,100.24
2022-12-09T07:38:53.330Z,103.75
2022-12-09T07:39:27.573Z,107.94
2022-12-09T07:40:15.582Z,114.16
2022-12-09T07:40:50.969Z,114.68
2022-12-09T07:41:39.448Z,112.70
2022-12-09T07:42:13.827Z,107.25
2022-12-09T07:42:59.308Z,102.28
2022-12-09T07:43:42.716Z,92.20
2022-12-09T07:44:23.499Z,85.46
2022-12-09T07:45:04.574Z,76.74
2022-12-09T07:45:45.636Z,76.06
2022-12-09T07:46:29.146Z,76.30
2022-12-09T07:47:10.882Z,75.89
2022-12-09T07:47:51.623Z,72.36
2022-12-09T07:48:33.543Z,69.15
2022-12-09T07:49:14.463Z,68.79
2022-12-09T07:49:56.809Z,67.84
2022-12-09T07:50:39.565Z,65.31
2022-12-09T07:51:20.448Z,61.26
2022-12-09T07:52:00.777Z,59.28
2022-12-09T07:52:41.553Z,58.92
2022-12-09T07:53:21.673Z,57.03
2022-12-09T07:54:02.682Z,55.83
2022-12-09T07:54:43.681Z,50.14
2022-12-09T07:55:24.626Z,50.75
2022-12-09T07:56:11.932Z,50.55
2022-12-09T07:56:53.611Z,49.31
2022-12-09T07:57:35.324Z,50.99
2022-12-09T07:58:17.577Z,48.72
2022-12-09T07:58:59.582Z,49.70
2022-12-09T07:59:40.367Z,51.38
2022-12-09T08:00:21.480Z,53.17
2022-12-09T08:01:02.339Z,52.58
2022-12-09T08:01:43.833Z,52.30
2022-12-09T08:02:25.732Z,51.64
2022-12-09T08:03:06.538Z,52.22
2022-12-09T08:03:48.484Z,51.94
2022-12-09T08:04:30.817Z,50.81
2022-12-09T08:05:13.019Z,49.38
2022-12-09T08:06:00.687Z,51.34
2022-12-09T08:06:44.684Z,50.90
2022-12-09T08:07:26.545Z,49.71
2022-12-09T08:08:06.564Z,52.50
2022-12-09T08:08:48.264Z,52.85
2022-12-09T08:09:28.537Z,52.30
2022-12-09T08:10:10.741Z,53.51
2022-12-09T08:10:53.389Z,52.13
2022-12-09T08:11:37.867Z,52.33
2022-12-09T08:12:19.575Z,52.13
2022-12-09T08:13:00.620Z,50.96
2022-12-09T08:13:41.725Z,52.01
2022-12-09T08:14:22.730Z,51.34
2022-12-09T08:15:02.383Z,48.86
2022-12-09T08:15:42.856Z,47.25
2022-12-09T08:16:26.640Z,47.53
2022-12-09T08:17:08.810Z,53.25
2022-12-09T08:17:50.349Z,54.31
2022-12-09T08:18:32.644Z,53.08
2022-12-09T08:19:12.669Z,52.38
2022-12-09T08:19:54.053Z,50.85
2022-12-09T08:20:35.542Z,52.74
2022-12-09T08:21:21.232Z,50.47
2022-12-09T08:22:02.434Z,48.11
2022-12-09T08:22:42.666Z,48.47
2022-12-09T08:23:24.312Z,44.00
2022-12-09T08:24:08.064Z,42.80
2022-12-09T08:24:48.792Z,43.90
2022-12-09T08:25:29.476Z,44.97
2022-12-09T08:26:11.389Z,44.91
2022-12-09T08:26:52.799Z,44.49
2022-12-09T08:27:34.547Z,45.41
2022-12-09T08:28:15.701Z,45.75
2022-12-09T08:28:56.474Z,45.54
2022-12-09T08:29:38.760Z,45.79
2022-12-09T08:30:20.483Z,44.96
2022-12-09T08:31:02.951Z,47.33
2022-12-09T08:31:44.614Z,47.72
2022-12-09T08:32:25.700Z,45.60
2022-12-09T08:33:07.464Z,45.45
2022-12-09T08:33:48.930Z,48.08
2022-12-09T08:34:29.295Z,47.53
2022-12-09T08:35:15.199Z,47.25
2022-12-09T08:35:55.374Z,50.22
2022-12-09T08:36:37.193Z,53.28
2022-12-09T08:37:18.276Z,54.28
2022-12-09T08:37:58.330Z,53.40
2022-12-09T08:38:39.459Z,53.10
2022-12-09T08:39:20.304Z,50.69
2022-12-09T08:40:01.522Z,50.40
2022-12-09T08:40:43.745Z,48.20
2022-12-09T08:41:44.680Z,51.04
2022-12-09T08:42:25.547Z,50.33
2022-12-09T08:43:05.676Z,49.99
2022-12-09T08:43:54.436Z,49.41
2022-12-09T08:44:48.353Z,48.40
2022-12-09T08:45:43.527Z,48.40
2022-12-09T08:46:37.440Z,48.75
2022-12-09T08:47:31.423Z,50.49
2022-12-09T08:48:26.510Z,51.88
2022-12-09T08:49:14.496Z,49.89
2022-12-09T08:49:48.416Z,45.51
2022-12-09T08:50:38.328Z,52.35
2022-12-09T08:51:14.593Z,75.34
2022-12-09T08:52:01.878Z,105.64
2022-12-09T08:52:40.281Z,97.09
2022-12-09T08:53:28.349Z,74.24
2022-12-09T08:54:03.363Z,80.60
2022-12-09T08:54:44.372Z,79.74
2022-12-09T08:55:24.687Z,75.96
2022-12-09T08:56:05.231Z,75.80
2022-12-09T08:56:46.198Z,76.61
2022-12-09T08:57:33.789Z,71.39
2022-12-09T08:58:14.308Z,66.43
2022-12-09T08:58:55.608Z,59.33
2022-12-09T08:59:41.875Z,53.31
2022-12-09T09:00:26.255Z,51.49
2022-12-09T09:01:07.555Z,53.58
2022-12-09T09:01:48.468Z,55.81
2022-12-09T09:02:30.897Z,56.28
2022-12-09T09:03:12.468Z,56.31
2022-12-09T09:03:54.724Z,55.41
2022-12-09T09:04:35.871Z,53.36
2022-12-09T09:05:16.567Z,53.56
2022-12-09T09:05:56.515Z,53.08
2022-12-09T09:06:37.426Z,51.67
2022-12-09T09:07:18.504Z,49.69
2022-12-09T09:07:59.382Z,49.40
2022-12-09T09:08:40.299Z,49.78
2022-12-09T09:09:24.532Z,49.59
2022-12-09T09:10:08.533Z,50.75
2022-12-09T09:10:49.327Z,53.41
2022-12-09T09:11:30.770Z,54.36
2022-12-09T09:12:12.748Z,51.41
2022-12-09T09:12:54.293Z,52.61
2022-12-09T09:13:34.722Z,53.50
2022-12-09T09:14:18.390Z,54.16
2022-12-09T09:14:58.565Z,53.21
2022-12-09T09:15:38.332Z,54.04
2022-12-09T09:16:29.816Z,54.45
2022-12-09T09:17:11.285Z,53.72
2022-12-09T09:17:54.136Z,53.38
2022-12-09T09:18:34.334Z,52.22
2022-12-09T09:19:15.806Z,51.83
2022-12-09T09:19:56.702Z,51.28
2022-12-09T09:20:37.745Z,49.67
2022-12-09T09:21:21.697Z,48.21
2022-12-09T09:22:02.731Z,49.46
2022-12-09T09:22:43.693Z,49.89